sensor_id;sensor_type;location;lat;lon;timestamp;P1;durP1;ratioP1;P2;durP2;ratioP2
36213;SDS011;37652;50.400;30.628;2022-11-12T00:01:06;46.60;;;29.10;;
36213;SDS011;37652;50.400;30.628;2022-11-12T00:03:07;47.05;;;27.33;;
36213;SDS011;37652;50.400;30.628;2022-11-12T00:07:09;44.10;;;27.63;;
36213;SDS011;37652;50.400;30.628;2022-11-12T00:09:10;49.75;;;27.75;;
36213;SDS011;37652;50.400;30.628;2022-11-12T00:11:11;43.92;;;26.83;;
36213;SDS011;37652;50.400;30.628;2022-11-12T00:13:12;38.92;;;27.80;;
36213;SDS011;37652;50.400;30.628;2022-11-12T00:15:13;46.33;;;27.13;;
36213;SDS011;37652;50.400;30.628;2022-11-12T00:17:14;47.70;;;27.80;;
36213;SDS011;37652;50.400;30.628;2022-11-12T00:19:15;43.35;;;26.77;;
36213;SDS011;37652;50.400;30.628;2022-11-12T00:21:16;41.70;;;29.35;;
36213;SDS011;37652;50.400;30.628;2022-11-12T00:23:17;46.78;;;28.05;;
36213;SDS011;37652;50.400;30.628;2022-11-12T00:25:18;48.65;;;27.13;;
36213;SDS011;37652;50.400;30.628;2022-11-12T00:27:19;53.13;;;28.65;;
36213;SDS011;37652;50.400;30.628;2022-11-12T00:29:21;47.60;;;27.33;;
36213;SDS011;37652;50.400;30.628;2022-11-12T00:31:22;48.03;;;29.73;;
36213;SDS011;37652;50.400;30.628;2022-11-12T00:33:22;52.15;;;29.35;;
36213;SDS011;37652;50.400;30.628;2022-11-12T00:35:23;47.60;;;28.40;;
36213;SDS011;37652;50.400;30.628;2022-11-12T00:37:24;41.33;;;27.10;;
36213;SDS011;37652;50.400;30.628;2022-11-12T00:39:26;39.60;;;26.77;;
36213;SDS011;37652;50.400;30.628;2022-11-12T00:41:27;44.53;;;27.05;;
36213;SDS011;37652;50.400;30.628;2022-11-12T00:43:28;45.47;;;27.35;;
36213;SDS011;37652;50.400;30.628;2022-11-12T00:45:29;37.38;;;26.13;;
36213;SDS011;37652;50.400;30.628;2022-11-12T00:47:29;43.33;;;26.55;;
36213;SDS011;37652;50.400;30.628;2022-11-12T00:49:30;41.97;;;25.55;;
36213;SDS011;37652;50.400;30.628;2022-11-12T00:51:33;37.30;;;25.98;;
36213;SDS011;37652;50.400;30.628;2022-11-12T00:53:34;39.00;;;26.33;;
36213;SDS011;37652;50.400;30.628;2022-11-12T00:55:35;43.97;;;25.98;;
36213;SDS011;37652;50.400;30.628;2022-11-12T00:57:36;42.38;;;27.52;;
36213;SDS011;37652;50.400;30.628;2022-11-12T00:59:37;39.72;;;25.48;;
36213;SDS011;37652;50.400;30.628;2022-11-12T01:01:38;38.13;;;25.92;;
36213;SDS011;37652;50.400;30.628;2022-11-12T04:23:02;28.88;;;20.23;;
36213;SDS011;37652;50.400;30.628;2022-11-12T04:25:03;30.45;;;20.70;;
36213;SDS011;37652;50.400;30.628;2022-11-12T04:27:30;33.78;;;22.58;;
36213;SDS011;37652;50.400;30.628;2022-11-12T04:29:31;38.03;;;22.80;;
36213;SDS011;37652;50.400;30.628;2022-11-12T04:31:51;34.33;;;22.63;;
36213;SDS011;37652;50.400;30.628;2022-11-12T04:33:52;39.13;;;23.17;;
36213;SDS011;37652;50.400;30.628;2022-11-12T04:35:53;41.80;;;23.77;;
36213;SDS011;37652;50.400;30.628;2022-11-12T04:37:54;37.33;;;24.00;;
36213;SDS011;37652;50.400;30.628;2022-11-12T04:39:55;36.28;;;23.67;;
36213;SDS011;37652;50.400;30.628;2022-11-12T04:42:16;39.97;;;24.38;;
36213;SDS011;37652;50.400;30.628;2022-11-12T04:44:36;42.53;;;24.75;;
36213;SDS011;37652;50.400;30.628;2022-11-12T04:46:56;42.15;;;24.95;;
36213;SDS011;37652;50.400;30.628;2022-11-12T04:48:57;40.22;;;24.90;;
36213;SDS011;37652;50.400;30.628;2022-11-12T04:50:59;35.50;;;24.70;;
36213;SDS011;37652;50.400;30.628;2022-11-12T04:53:27;40.35;;;25.88;;
36213;SDS011;37652;50.400;30.628;2022-11-12T04:55:29;36.67;;;25.52;;
36213;SDS011;37652;50.400;30.628;2022-11-12T04:57:30;39.25;;;26.42;;
36213;SDS011;37652;50.400;30.628;2022-11-12T04:59:31;40.25;;;26.13;;
36213;SDS011;37652;50.400;30.628;2022-11-12T05:01:32;43.05;;;27.35;;
36213;SDS011;37652;50.400;30.628;2022-11-12T05:03:33;42.55;;;27.92;;
36213;SDS011;37652;50.400;30.628;2022-11-12T05:05:34;33.42;;;24.92;;
36213;SDS011;37652;50.400;30.628;2022-11-12T05:07:35;43.22;;;27.23;;
36213;SDS011;37652;50.400;30.628;2022-11-12T05:09:36;45.97;;;28.17;;
36213;SDS011;37652;50.400;30.628;2022-11-12T05:11:37;41.90;;;28.80;;
36213;SDS011;37652;50.400;30.628;2022-11-12T05:13:38;41.17;;;26.20;;
36213;SDS011;37652;50.400;30.628;2022-11-12T05:15:39;37.30;;;25.92;;
36213;SDS011;37652;50.400;30.628;2022-11-12T05:17:43;43.17;;;28.42;;
36213;SDS011;37652;50.400;30.628;2022-11-12T05:19:44;39.95;;;26.13;;
36213;SDS011;37652;50.400;30.628;2022-11-12T05:21:45;40.42;;;27.48;;
36213;SDS011;37652;50.400;30.628;2022-11-12T05:24:04;40.20;;;27.27;;
36213;SDS011;37652;50.400;30.628;2022-11-12T05:26:06;41.90;;;26.35;;
36213;SDS011;37652;50.400;30.628;2022-11-12T05:28:07;41.50;;;27.30;;
36213;SDS011;37652;50.400;30.628;2022-11-12T05:30:08;42.05;;;26.95;;
36213;SDS011;37652;50.400;30.628;2022-11-12T05:32:10;35.03;;;24.40;;
36213;SDS011;37652;50.400;30.628;2022-11-12T05:34:11;43.03;;;26.35;;
36213;SDS011;37652;50.400;30.628;2022-11-12T05:38:13;40.87;;;27.07;;
36213;SDS011;37652;50.400;30.628;2022-11-12T05:40:14;40.97;;;27.60;;
36213;SDS011;37652;50.400;30.628;2022-11-12T05:42:15;47.80;;;28.58;;
36213;SDS011;37652;50.400;30.628;2022-11-12T05:44:16;42.13;;;29.40;;
36213;SDS011;37652;50.400;30.628;2022-11-12T05:46:17;42.03;;;27.10;;
36213;SDS011;37652;50.400;30.628;2022-11-12T05:48:18;41.75;;;26.48;;
36213;SDS011;37652;50.400;30.628;2022-11-12T05:50:19;40.67;;;26.35;;
36213;SDS011;37652;50.400;30.628;2022-11-12T05:52:20;44.08;;;27.38;;
36213;SDS011;37652;50.400;30.628;2022-11-12T05:54:21;39.83;;;26.63;;
36213;SDS011;37652;50.400;30.628;2022-11-12T05:56:23;39.20;;;26.65;;
36213;SDS011;37652;50.400;30.628;2022-11-12T05:58:24;45.85;;;27.85;;
36213;SDS011;37652;50.400;30.628;2022-11-12T06:00:25;40.08;;;25.95;;
36213;SDS011;37652;50.400;30.628;2022-11-12T06:02:26;40.95;;;27.60;;
36213;SDS011;37652;50.400;30.628;2022-11-12T06:04:27;42.65;;;28.98;;
36213;SDS011;37652;50.400;30.628;2022-11-12T06:06:28;45.67;;;27.83;;
36213;SDS011;37652;50.400;30.628;2022-11-12T06:08:29;44.40;;;26.75;;
36213;SDS011;37652;50.400;30.628;2022-11-12T06:10:31;44.92;;;28.13;;
36213;SDS011;37652;50.400;30.628;2022-11-12T06:12:32;44.42;;;25.30;;
36213;SDS011;37652;50.400;30.628;2022-11-12T06:14:33;43.65;;;29.33;;
36213;SDS011;37652;50.400;30.628;2022-11-12T06:16:34;47.80;;;28.42;;
36213;SDS011;37652;50.400;30.628;2022-11-12T06:18:35;44.55;;;29.60;;
36213;SDS011;37652;50.400;30.628;2022-11-12T06:20:36;44.53;;;27.85;;
36213;SDS011;37652;50.400;30.628;2022-11-12T06:22:37;44.50;;;27.88;;
36213;SDS011;37652;50.400;30.628;2022-11-12T06:24:38;51.55;;;28.67;;
36213;SDS011;37652;50.400;30.628;2022-11-12T06:26:39;41.05;;;27.63;;
36213;SDS011;37652;50.400;30.628;2022-11-12T06:28:40;47.47;;;29.02;;
36213;SDS011;37652;50.400;30.628;2022-11-12T06:30:41;46.88;;;28.35;;
36213;SDS011;37652;50.400;30.628;2022-11-12T06:32:46;47.10;;;30.00;;
36213;SDS011;37652;50.400;30.628;2022-11-12T06:34:47;50.38;;;28.55;;
36213;SDS011;37652;50.400;30.628;2022-11-12T06:36:48;50.78;;;28.48;;
36213;SDS011;37652;50.400;30.628;2022-11-12T06:38:49;57.55;;;29.33;;
36213;SDS011;37652;50.400;30.628;2022-11-12T06:40:50;50.38;;;29.20;;
36213;SDS011;37652;50.400;30.628;2022-11-12T06:42:55;46.58;;;29.20;;
36213;SDS011;37652;50.400;30.628;2022-11-12T06:44:56;49.97;;;28.98;;
36213;SDS011;37652;50.400;30.628;2022-11-12T06:46:57;55.63;;;29.05;;
36213;SDS011;37652;50.400;30.628;2022-11-12T06:48:58;61.33;;;30.35;;
36213;SDS011;37652;50.400;30.628;2022-11-12T06:51:04;46.55;;;30.08;;
36213;SDS011;37652;50.400;30.628;2022-11-12T06:53:18;52.63;;;28.95;;
36213;SDS011;37652;50.400;30.628;2022-11-12T06:55:19;46.95;;;27.60;;
36213;SDS011;37652;50.400;30.628;2022-11-12T06:57:19;46.08;;;27.70;;
36213;SDS011;37652;50.400;30.628;2022-11-12T06:59:20;46.28;;;27.90;;
36213;SDS011;37652;50.400;30.628;2022-11-12T07:01:22;47.97;;;28.00;;
36213;SDS011;37652;50.400;30.628;2022-11-12T07:03:23;37.65;;;22.63;;
36213;SDS011;37652;50.400;30.628;2022-11-12T07:05:24;47.83;;;26.33;;
36213;SDS011;37652;50.400;30.628;2022-11-12T07:07:25;39.35;;;23.65;;
36213;SDS011;37652;50.400;30.628;2022-11-12T07:09:26;38.30;;;25.33;;
36213;SDS011;37652;50.400;30.628;2022-11-12T07:11:27;47.30;;;23.92;;
36213;SDS011;37652;50.400;30.628;2022-11-12T07:13:31;38.45;;;23.58;;
36213;SDS011;37652;50.400;30.628;2022-11-12T07:15:32;35.97;;;23.00;;
36213;SDS011;37652;50.400;30.628;2022-11-12T07:17:33;39.67;;;23.70;;
36213;SDS011;37652;50.400;30.628;2022-11-12T07:19:35;43.33;;;25.83;;
36213;SDS011;37652;50.400;30.628;2022-11-12T07:21:36;40.85;;;26.23;;
36213;SDS011;37652;50.400;30.628;2022-11-12T07:23:37;38.28;;;24.40;;
36213;SDS011;37652;50.400;30.628;2022-11-12T07:25:38;38.13;;;23.90;;
36213;SDS011;37652;50.400;30.628;2022-11-12T07:27:39;41.72;;;24.90;;
36213;SDS011;37652;50.400;30.628;2022-11-12T07:29:40;40.72;;;24.58;;
36213;SDS011;37652;50.400;30.628;2022-11-12T07:31:41;41.42;;;24.75;;
36213;SDS011;37652;50.400;30.628;2022-11-12T07:33:42;38.50;;;25.58;;
36213;SDS011;37652;50.400;30.628;2022-11-12T07:37:44;38.92;;;24.05;;
36213;SDS011;37652;50.400;30.628;2022-11-12T07:39:45;52.10;;;23.42;;
36213;SDS011;37652;50.400;30.628;2022-11-12T07:41:46;34.65;;;24.80;;
36213;SDS011;37652;50.400;30.628;2022-11-12T07:43:49;31.55;;;21.17;;
36213;SDS011;37652;50.400;30.628;2022-11-12T07:45:50;33.65;;;22.42;;
36213;SDS011;37652;50.400;30.628;2022-11-12T07:47:51;36.15;;;22.40;;
36213;SDS011;37652;50.400;30.628;2022-11-12T07:49:52;40.92;;;24.20;;
36213;SDS011;37652;50.400;30.628;2022-11-12T07:51:53;38.13;;;22.83;;
36213;SDS011;37652;50.400;30.628;2022-11-12T07:53:55;31.40;;;21.77;;
36213;SDS011;37652;50.400;30.628;2022-11-12T07:55:59;32.90;;;22.30;;
36213;SDS011;37652;50.400;30.628;2022-11-12T07:58:00;35.80;;;22.88;;
36213;SDS011;37652;50.400;30.628;2022-11-12T08:00:01;36.45;;;21.92;;
36213;SDS011;37652;50.400;30.628;2022-11-12T08:02:02;33.15;;;20.45;;
36213;SDS011;37652;50.400;30.628;2022-11-12T08:04:05;32.08;;;21.10;;
36213;SDS011;37652;50.400;30.628;2022-11-12T08:06:08;32.45;;;20.17;;
36213;SDS011;37652;50.400;30.628;2022-11-12T08:08:09;28.90;;;20.08;;
36213;SDS011;37652;50.400;30.628;2022-11-12T08:10:10;28.08;;;17.75;;
36213;SDS011;37652;50.400;30.628;2022-11-12T08:12:11;28.77;;;19.00;;
36213;SDS011;37652;50.400;30.628;2022-11-12T08:14:12;26.40;;;18.33;;
36213;SDS011;37652;50.400;30.628;2022-11-12T08:16:13;24.63;;;17.67;;
36213;SDS011;37652;50.400;30.628;2022-11-12T08:18:14;27.42;;;17.88;;
36213;SDS011;37652;50.400;30.628;2022-11-12T08:20:15;27.17;;;16.58;;
36213;SDS011;37652;50.400;30.628;2022-11-12T08:24:17;23.70;;;17.60;;
36213;SDS011;37652;50.400;30.628;2022-11-12T08:26:18;25.98;;;17.92;;
36213;SDS011;37652;50.400;30.628;2022-11-12T08:28:19;23.65;;;17.65;;
36213;SDS011;37652;50.400;30.628;2022-11-12T08:30:20;23.98;;;17.85;;
36213;SDS011;37652;50.400;30.628;2022-11-12T08:32:21;25.67;;;17.88;;
36213;SDS011;37652;50.400;30.628;2022-11-12T08:34:22;26.67;;;17.42;;
36213;SDS011;37652;50.400;30.628;2022-11-12T08:36:23;31.17;;;18.40;;
36213;SDS011;37652;50.400;30.628;2022-11-12T08:38:24;25.33;;;17.02;;
36213;SDS011;37652;50.400;30.628;2022-11-12T08:40:29;26.30;;;17.95;;
36213;SDS011;37652;50.400;30.628;2022-11-12T08:42:30;21.02;;;16.27;;
36213;SDS011;37652;50.400;30.628;2022-11-12T08:44:32;22.85;;;16.48;;
36213;SDS011;37652;50.400;30.628;2022-11-12T08:48:33;23.58;;;16.45;;
36213;SDS011;37652;50.400;30.628;2022-11-12T08:50:35;20.80;;;14.68;;
36213;SDS011;37652;50.400;30.628;2022-11-12T08:52:36;25.02;;;16.90;;
36213;SDS011;37652;50.400;30.628;2022-11-12T08:56:37;17.73;;;14.33;;
36213;SDS011;37652;50.400;30.628;2022-11-12T08:58:39;22.25;;;14.48;;
36213;SDS011;37652;50.400;30.628;2022-11-12T09:02:41;21.73;;;15.77;;
36213;SDS011;37652;50.400;30.628;2022-11-12T09:06:42;23.85;;;16.13;;
36213;SDS011;37652;50.400;30.628;2022-11-12T09:08:44;20.52;;;15.98;;
36213;SDS011;37652;50.400;30.628;2022-11-12T09:12:49;23.17;;;17.00;;
36213;SDS011;37652;50.400;30.628;2022-11-12T09:14:51;25.02;;;16.58;;
36213;SDS011;37652;50.400;30.628;2022-11-12T09:16:52;25.58;;;17.30;;
36213;SDS011;37652;50.400;30.628;2022-11-12T09:18:53;28.50;;;15.48;;
36213;SDS011;37652;50.400;30.628;2022-11-12T09:20:57;24.05;;;15.73;;
36213;SDS011;37652;50.400;30.628;2022-11-12T09:22:59;27.40;;;16.70;;
36213;SDS011;37652;50.400;30.628;2022-11-12T09:25:02;18.85;;;13.38;;
36213;SDS011;37652;50.400;30.628;2022-11-12T09:27:03;21.65;;;14.82;;
36213;SDS011;37652;50.400;30.628;2022-11-12T09:29:04;36.85;;;15.52;;
36213;SDS011;37652;50.400;30.628;2022-11-12T09:31:05;22.15;;;14.50;;
36213;SDS011;37652;50.400;30.628;2022-11-12T09:33:06;17.90;;;14.50;;
36213;SDS011;37652;50.400;30.628;2022-11-12T09:35:07;18.73;;;13.98;;
36213;SDS011;37652;50.400;30.628;2022-11-12T09:37:08;22.70;;;12.90;;
36213;SDS011;37652;50.400;30.628;2022-11-12T09:39:09;20.58;;;14.77;;
36213;SDS011;37652;50.400;30.628;2022-11-12T09:43:31;25.30;;;15.02;;
36213;SDS011;37652;50.400;30.628;2022-11-12T09:45:33;21.65;;;14.18;;
36213;SDS011;37652;50.400;30.628;2022-11-12T09:47:39;26.48;;;14.70;;
36213;SDS011;37652;50.400;30.628;2022-11-12T09:49:46;20.50;;;14.25;;
36213;SDS011;37652;50.400;30.628;2022-11-12T09:51:52;19.65;;;13.25;;
36213;SDS011;37652;50.400;30.628;2022-11-12T09:53:55;20.30;;;12.82;;
36213;SDS011;37652;50.400;30.628;2022-11-12T09:55:57;20.38;;;13.60;;
36213;SDS011;37652;50.400;30.628;2022-11-12T09:59:59;16.48;;;14.05;;
36213;SDS011;37652;50.400;30.628;2022-11-12T13:52:55;16.65;;;13.60;;
36213;SDS011;37652;50.400;30.628;2022-11-12T13:55:00;20.02;;;13.93;;
36213;SDS011;37652;50.400;30.628;2022-11-12T13:59:24;21.65;;;15.18;;
36213;SDS011;37652;50.400;30.628;2022-11-12T14:56:43;22.90;;;17.55;;
36213;SDS011;37652;50.400;30.628;2022-11-12T14:58:46;22.98;;;17.55;;
36213;SDS011;37652;50.400;30.628;2022-11-12T15:00:48;22.85;;;17.42;;
36213;SDS011;37652;50.400;30.628;2022-11-12T15:02:51;22.05;;;15.38;;
36213;SDS011;37652;50.400;30.628;2022-11-12T15:05:00;20.23;;;13.48;;
36213;SDS011;37652;50.400;30.628;2022-11-12T15:07:01;15.70;;;12.77;;
36213;SDS011;37652;50.400;30.628;2022-11-12T15:09:02;16.65;;;12.48;;
36213;SDS011;37652;50.400;30.628;2022-11-12T15:11:14;17.65;;;12.23;;
36213;SDS011;37652;50.400;30.628;2022-11-12T15:13:18;18.10;;;12.30;;
36213;SDS011;37652;50.400;30.628;2022-11-12T15:15:20;16.58;;;12.80;;
36213;SDS011;37652;50.400;30.628;2022-11-12T15:17:30;15.35;;;12.38;;
36213;SDS011;37652;50.400;30.628;2022-11-12T15:19:31;18.02;;;13.27;;
36213;SDS011;37652;50.400;30.628;2022-11-12T15:23:35;18.42;;;14.02;;
36213;SDS011;37652;50.400;30.628;2022-11-12T15:25:36;18.40;;;13.52;;
36213;SDS011;37652;50.400;30.628;2022-11-12T15:27:40;22.17;;;14.10;;
36213;SDS011;37652;50.400;30.628;2022-11-12T15:29:41;20.23;;;12.90;;
36213;SDS011;37652;50.400;30.628;2022-11-12T15:33:44;15.43;;;12.23;;
36213;SDS011;37652;50.400;30.628;2022-11-12T15:35:45;16.38;;;11.43;;
36213;SDS011;37652;50.400;30.628;2022-11-12T15:37:55;17.30;;;11.55;;
36213;SDS011;37652;50.400;30.628;2022-11-12T15:40:04;18.98;;;11.57;;
36213;SDS011;37652;50.400;30.628;2022-11-12T15:44:17;18.33;;;11.95;;
36213;SDS011;37652;50.400;30.628;2022-11-12T15:46:18;15.55;;;10.93;;
36213;SDS011;37652;50.400;30.628;2022-11-12T15:48:19;15.90;;;11.73;;
36213;SDS011;37652;50.400;30.628;2022-11-12T15:50:21;17.27;;;10.80;;
36213;SDS011;37652;50.400;30.628;2022-11-12T15:52:23;18.02;;;11.95;;
36213;SDS011;37652;50.400;30.628;2022-11-12T15:54:24;13.90;;;10.80;;
36213;SDS011;37652;50.400;30.628;2022-11-12T15:56:25;15.98;;;12.65;;
36213;SDS011;37652;50.400;30.628;2022-11-12T15:58:28;16.23;;;11.25;;
36213;SDS011;37652;50.400;30.628;2022-11-12T16:00:32;16.85;;;12.10;;
36213;SDS011;37652;50.400;30.628;2022-11-12T16:02:34;15.15;;;12.00;;
36213;SDS011;37652;50.400;30.628;2022-11-12T16:04:35;15.10;;;11.43;;
36213;SDS011;37652;50.400;30.628;2022-11-12T16:06:36;18.63;;;12.13;;
36213;SDS011;37652;50.400;30.628;2022-11-12T19:48:14;15.07;;;10.13;;
36213;SDS011;37652;50.400;30.628;2022-11-12T19:50:15;12.02;;;8.30;;
36213;SDS011;37652;50.400;30.628;2022-11-12T19:52:16;12.85;;;8.70;;
36213;SDS011;37652;50.400;30.628;2022-11-12T19:54:17;13.02;;;8.40;;
36213;SDS011;37652;50.400;30.628;2022-11-12T19:56:18;8.90;;;8.00;;
36213;SDS011;37652;50.400;30.628;2022-11-12T19:58:21;11.88;;;8.15;;
36213;SDS011;37652;50.400;30.628;2022-11-12T20:00:22;11.80;;;8.40;;
36213;SDS011;37652;50.400;30.628;2022-11-12T20:02:23;8.48;;;7.57;;
36213;SDS011;37652;50.400;30.628;2022-11-12T20:04:24;12.48;;;9.15;;
36213;SDS011;37652;50.400;30.628;2022-11-12T20:06:25;11.82;;;8.90;;
36213;SDS011;37652;50.400;30.628;2022-11-12T20:08:27;11.52;;;8.90;;
36213;SDS011;37652;50.400;30.628;2022-11-12T20:10:28;16.42;;;12.23;;
36213;SDS011;37652;50.400;30.628;2022-11-12T20:12:28;13.55;;;10.23;;
36213;SDS011;37652;50.400;30.628;2022-11-12T20:14:29;13.48;;;8.82;;
36213;SDS011;37652;50.400;30.628;2022-11-12T20:16:30;11.15;;;7.95;;
36213;SDS011;37652;50.400;30.628;2022-11-12T20:18:31;10.68;;;8.07;;
36213;SDS011;37652;50.400;30.628;2022-11-12T20:20:33;9.27;;;7.53;;
36213;SDS011;37652;50.400;30.628;2022-11-12T20:22:34;8.88;;;7.15;;
36213;SDS011;37652;50.400;30.628;2022-11-12T20:24:35;10.35;;;7.90;;
36213;SDS011;37652;50.400;30.628;2022-11-12T20:26:36;8.60;;;6.95;;
36213;SDS011;37652;50.400;30.628;2022-11-12T20:28:38;8.57;;;7.68;;
36213;SDS011;37652;50.400;30.628;2022-11-12T20:30:39;8.70;;;7.13;;
36213;SDS011;37652;50.400;30.628;2022-11-12T20:32:40;8.80;;;6.65;;
36213;SDS011;37652;50.400;30.628;2022-11-12T20:34:41;9.50;;;6.68;;
36213;SDS011;37652;50.400;30.628;2022-11-12T20:36:42;10.02;;;7.35;;
36213;SDS011;37652;50.400;30.628;2022-11-12T20:38:43;9.55;;;8.13;;
36213;SDS011;37652;50.400;30.628;2022-11-12T20:40:44;10.20;;;7.93;;
36213;SDS011;37652;50.400;30.628;2022-11-12T20:42:45;8.18;;;7.15;;
36213;SDS011;37652;50.400;30.628;2022-11-12T20:44:46;8.30;;;7.20;;
36213;SDS011;37652;50.400;30.628;2022-11-12T20:46:48;10.27;;;7.05;;
36213;SDS011;37652;50.400;30.628;2022-11-12T20:48:49;10.20;;;6.60;;
36213;SDS011;37652;50.400;30.628;2022-11-12T20:50:50;9.05;;;6.93;;
36213;SDS011;37652;50.400;30.628;2022-11-12T20:52:51;8.10;;;6.78;;
36213;SDS011;37652;50.400;30.628;2022-11-12T20:54:51;10.82;;;7.22;;
36213;SDS011;37652;50.400;30.628;2022-11-12T20:56:52;10.68;;;7.80;;
36213;SDS011;37652;50.400;30.628;2022-11-12T20:58:55;10.40;;;8.38;;
36213;SDS011;37652;50.400;30.628;2022-11-12T21:03:00;8.67;;;6.83;;
36213;SDS011;37652;50.400;30.628;2022-11-12T21:05:01;10.18;;;7.05;;
36213;SDS011;37652;50.400;30.628;2022-11-12T21:07:02;7.70;;;6.90;;
36213;SDS011;37652;50.400;30.628;2022-11-12T21:09:03;8.75;;;7.10;;
36213;SDS011;37652;50.400;30.628;2022-11-12T21:11:05;7.28;;;5.82;;
36213;SDS011;37652;50.400;30.628;2022-11-12T21:13:07;6.38;;;5.75;;
36213;SDS011;37652;50.400;30.628;2022-11-12T21:15:09;7.97;;;6.57;;
36213;SDS011;37652;50.400;30.628;2022-11-12T21:17:10;8.15;;;6.28;;
36213;SDS011;37652;50.400;30.628;2022-11-12T21:19:10;9.98;;;7.30;;
36213;SDS011;37652;50.400;30.628;2022-11-12T21:21:12;8.00;;;6.72;;
36213;SDS011;37652;50.400;30.628;2022-11-12T21:23:14;7.00;;;5.35;;
36213;SDS011;37652;50.400;30.628;2022-11-12T21:25:15;7.38;;;5.80;;
36213;SDS011;37652;50.400;30.628;2022-11-12T21:27:16;8.98;;;6.95;;
36213;SDS011;37652;50.400;30.628;2022-11-12T21:29:17;10.23;;;6.65;;
36213;SDS011;37652;50.400;30.628;2022-11-12T21:31:22;7.97;;;6.63;;
36213;SDS011;37652;50.400;30.628;2022-11-12T21:33:27;7.65;;;6.63;;
36213;SDS011;37652;50.400;30.628;2022-11-12T21:35:28;8.48;;;6.03;;
36213;SDS011;37652;50.400;30.628;2022-11-12T21:37:28;8.48;;;6.22;;
36213;SDS011;37652;50.400;30.628;2022-11-12T21:39:29;9.38;;;6.20;;
36213;SDS011;37652;50.400;30.628;2022-11-12T21:41:30;6.60;;;5.55;;
36213;SDS011;37652;50.400;30.628;2022-11-12T21:43:38;7.60;;;6.45;;
36213;SDS011;37652;50.400;30.628;2022-11-12T21:45:45;7.00;;;5.38;;
36213;SDS011;37652;50.400;30.628;2022-11-12T21:47:46;7.13;;;5.95;;
36213;SDS011;37652;50.400;30.628;2022-11-12T21:49:47;8.00;;;6.75;;
36213;SDS011;37652;50.400;30.628;2022-11-12T21:51:48;7.20;;;5.55;;
36213;SDS011;37652;50.400;30.628;2022-11-12T21:53:53;9.70;;;6.15;;
36213;SDS011;37652;50.400;30.628;2022-11-12T21:56:05;9.10;;;6.95;;
36213;SDS011;37652;50.400;30.628;2022-11-12T21:58:08;9.55;;;6.03;;
36213;SDS011;37652;50.400;30.628;2022-11-12T22:00:10;7.30;;;6.00;;
36213;SDS011;37652;50.400;30.628;2022-11-12T22:02:11;8.27;;;5.38;;
36213;SDS011;37652;50.400;30.628;2022-11-12T22:04:12;6.50;;;5.68;;
36213;SDS011;37652;50.400;30.628;2022-11-12T22:06:14;5.90;;;5.30;;
36213;SDS011;37652;50.400;30.628;2022-11-12T22:08:15;6.05;;;4.95;;
36213;SDS011;37652;50.400;30.628;2022-11-12T22:10:16;6.63;;;4.90;;
36213;SDS011;37652;50.400;30.628;2022-11-12T22:12:17;5.05;;;4.60;;
36213;SDS011;37652;50.400;30.628;2022-11-12T22:14:18;4.95;;;4.35;;
36213;SDS011;37652;50.400;30.628;2022-11-12T22:16:20;5.63;;;4.53;;
36213;SDS011;37652;50.400;30.628;2022-11-12T22:18:22;4.57;;;3.70;;
36213;SDS011;37652;50.400;30.628;2022-11-12T22:20:23;4.03;;;3.45;;
36213;SDS011;37652;50.400;30.628;2022-11-12T22:22:24;4.57;;;4.10;;
36213;SDS011;37652;50.400;30.628;2022-11-12T22:24:25;4.43;;;3.90;;
36213;SDS011;37652;50.400;30.628;2022-11-12T22:26:27;4.90;;;4.35;;
36213;SDS011;37652;50.400;30.628;2022-11-12T22:28:28;4.75;;;3.42;;
36213;SDS011;37652;50.400;30.628;2022-11-12T22:30:29;4.65;;;4.00;;
36213;SDS011;37652;50.400;30.628;2022-11-12T22:32:30;4.97;;;4.30;;
36213;SDS011;37652;50.400;30.628;2022-11-12T22:34:31;7.68;;;4.40;;
36213;SDS011;37652;50.400;30.628;2022-11-12T22:36:33;5.97;;;3.90;;
36213;SDS011;37652;50.400;30.628;2022-11-12T22:38:34;5.50;;;4.95;;
36213;SDS011;37652;50.400;30.628;2022-11-12T22:40:35;6.03;;;4.30;;
36213;SDS011;37652;50.400;30.628;2022-11-12T22:42:36;5.72;;;4.40;;
36213;SDS011;37652;50.400;30.628;2022-11-12T22:44:37;5.10;;;3.90;;
36213;SDS011;37652;50.400;30.628;2022-11-12T22:46:38;5.28;;;4.78;;
36213;SDS011;37652;50.400;30.628;2022-11-12T22:48:40;5.32;;;4.28;;
36213;SDS011;37652;50.400;30.628;2022-11-12T22:50:40;7.30;;;4.93;;
36213;SDS011;37652;50.400;30.628;2022-11-12T22:52:42;6.25;;;4.60;;
36213;SDS011;37652;50.400;30.628;2022-11-12T22:54:43;6.00;;;4.75;;
36213;SDS011;37652;50.400;30.628;2022-11-12T22:56:44;5.15;;;4.05;;
36213;SDS011;37652;50.400;30.628;2022-11-12T22:58:45;6.28;;;4.63;;
36213;SDS011;37652;50.400;30.628;2022-11-12T23:02:46;4.77;;;4.30;;
36213;SDS011;37652;50.400;30.628;2022-11-12T23:04:47;6.30;;;4.68;;
36213;SDS011;37652;50.400;30.628;2022-11-12T23:06:48;5.78;;;5.15;;
36213;SDS011;37652;50.400;30.628;2022-11-12T23:08:49;7.22;;;5.43;;
36213;SDS011;37652;50.400;30.628;2022-11-12T23:10:50;5.88;;;5.07;;
36213;SDS011;37652;50.400;30.628;2022-11-12T23:12:51;6.43;;;4.72;;
36213;SDS011;37652;50.400;30.628;2022-11-12T23:14:52;7.75;;;5.78;;
36213;SDS011;37652;50.400;30.628;2022-11-12T23:16:53;6.78;;;4.40;;
36213;SDS011;37652;50.400;30.628;2022-11-12T23:18:54;5.18;;;4.68;;
36213;SDS011;37652;50.400;30.628;2022-11-12T23:20:59;6.65;;;4.72;;
36213;SDS011;37652;50.400;30.628;2022-11-12T23:23:04;5.90;;;4.72;;
36213;SDS011;37652;50.400;30.628;2022-11-12T23:25:05;5.15;;;4.13;;
36213;SDS011;37652;50.400;30.628;2022-11-12T23:27:06;5.15;;;4.25;;
36213;SDS011;37652;50.400;30.628;2022-11-12T23:29:09;6.07;;;4.03;;
36213;SDS011;37652;50.400;30.628;2022-11-12T23:31:14;6.13;;;4.47;;
36213;SDS011;37652;50.400;30.628;2022-11-12T23:33:16;4.90;;;4.38;;
36213;SDS011;37652;50.400;30.628;2022-11-12T23:35:17;4.65;;;4.10;;
36213;SDS011;37652;50.400;30.628;2022-11-12T23:37:18;4.57;;;3.78;;
36213;SDS011;37652;50.400;30.628;2022-11-12T23:39:18;5.50;;;4.07;;
36213;SDS011;37652;50.400;30.628;2022-11-12T23:41:20;5.22;;;3.70;;
36213;SDS011;37652;50.400;30.628;2022-11-12T23:43:21;4.97;;;3.95;;
36213;SDS011;37652;50.400;30.628;2022-11-12T23:45:22;8.10;;;3.50;;
36213;SDS011;37652;50.400;30.628;2022-11-12T23:47:23;4.03;;;3.55;;
36213;SDS011;37652;50.400;30.628;2022-11-12T23:49:24;5.38;;;4.20;;
36213;SDS011;37652;50.400;30.628;2022-11-12T23:51:25;4.18;;;3.78;;
36213;SDS011;37652;50.400;30.628;2022-11-12T23:55:27;6.53;;;4.30;;
36213;SDS011;37652;50.400;30.628;2022-11-12T23:57:28;4.13;;;3.78;;
36213;SDS011;37652;50.400;30.628;2022-11-12T23:59:29;3.33;;;3.03;;
